createdAt,value
2023-01-18T00:00:34.366Z,4.15
2023-01-18T00:03:03.752Z,4.22
2023-01-18T00:05:31.929Z,4.85
2023-01-18T00:07:59.921Z,4.03
2023-01-18T00:10:27.995Z,6.05
2023-01-18T00:12:56.693Z,3.72
2023-01-18T00:15:24.961Z,4.40
2023-01-18T00:17:53.351Z,3.70
2023-01-18T00:20:24.624Z,5.57
2023-01-18T00:22:53.228Z,4.07
2023-01-18T00:25:24.221Z,4.33
2023-01-18T00:27:53.933Z,3.97
2023-01-18T00:30:24.083Z,4.00
2023-01-18T00:32:56.432Z,4.03
2023-01-18T00:35:26.638Z,3.92
2023-01-18T00:37:55.383Z,4.28
2023-01-18T00:40:25.898Z,3.85
2023-01-18T00:43:11.231Z,7.55
2023-01-18T00:45:40.981Z,4.05
2023-01-18T00:48:09.324Z,4.20
2023-01-18T00:50:39.099Z,3.90
2023-01-18T00:53:07.180Z,4.20
2023-01-18T00:55:35.179Z,3.85
2023-01-18T00:58:03.168Z,4.03
2023-01-18T01:00:32.494Z,3.70
2023-01-18T01:03:00.944Z,3.83
2023-01-18T01:05:43.789Z,3.75
2023-01-18T01:08:17.676Z,3.90
2023-01-18T01:10:46.877Z,5.93
2023-01-18T01:13:34.047Z,3.28
2023-01-18T01:16:23.750Z,3.50
2023-01-18T01:19:09.632Z,3.63
2023-01-18T01:21:55.338Z,4.18
2023-01-18T01:24:42.993Z,3.58
2023-01-18T01:27:11.661Z,3.58
2023-01-18T01:29:39.752Z,3.03
2023-01-18T01:32:07.907Z,3.55
2023-01-18T01:34:36.308Z,4.10
2023-01-18T01:37:04.761Z,3.58
2023-01-18T01:39:34.180Z,4.20
2023-01-18T01:42:02.201Z,3.95
2023-01-18T01:44:52.015Z,3.60
2023-01-18T01:47:35.870Z,4.18
2023-01-18T01:50:12.547Z,4.00
2023-01-18T01:52:44.910Z,4.05
2023-01-18T01:55:21.173Z,3.78
2023-01-18T01:57:54.214Z,4.32
2023-01-18T02:00:24.180Z,4.28
2023-01-18T02:02:55.809Z,5.82
2023-01-18T02:05:25.723Z,4.03
2023-01-18T02:07:55.160Z,4.22
2023-01-18T02:15:25.683Z,4.35
2023-01-18T02:18:11.298Z,4.97
2023-01-18T02:21:05.251Z,4.20
2023-01-18T02:23:36.398Z,5.50
2023-01-18T02:26:49.436Z,6.45
2023-01-18T02:29:21.958Z,6.88
2023-01-18T02:32:04.717Z,6.32
2023-01-18T02:34:40.979Z,6.47
2023-01-18T02:37:17.558Z,7.15
2023-01-18T02:39:56.136Z,5.53
2023-01-18T02:42:45.319Z,7.57
2023-01-18T02:45:39.107Z,5.90
2023-01-18T02:48:08.011Z,5.38
2023-01-18T02:50:36.212Z,6.03
2023-01-18T02:53:04.343Z,5.32
2023-01-18T02:55:39.580Z,5.32
2023-01-18T02:58:13.295Z,5.57
2023-01-18T03:00:45.882Z,6.03
2023-01-18T03:03:15.991Z,6.80
2023-01-18T03:05:47.965Z,7.22
2023-01-18T03:08:22.474Z,6.78
2023-01-18T03:11:00.645Z,7.35
2023-01-18T03:13:53.303Z,7.63
2023-01-18T03:16:25.392Z,7.35
2023-01-18T03:19:04.171Z,8.02
2023-01-18T03:21:38.910Z,6.43
2023-01-18T03:24:09.070Z,8.73
2023-01-18T03:26:41.197Z,9.27
2023-01-18T03:29:28.064Z,9.35
2023-01-18T03:32:20.015Z,9.13
2023-01-18T03:34:53.621Z,8.68
2023-01-18T03:37:25.250Z,10.13
2023-01-18T03:39:57.000Z,9.25
2023-01-18T03:42:29.133Z,9.48
2023-01-18T03:45:04.009Z,10.45
2023-01-18T03:47:33.960Z,10.15
2023-01-18T03:50:02.547Z,10.20
2023-01-18T03:52:37.949Z,12.10
2023-01-18T03:55:10.942Z,9.43
2023-01-18T03:57:45.576Z,9.38
2023-01-18T04:00:15.709Z,9.18
2023-01-18T04:02:46.802Z,11.18
2023-01-18T04:05:15.022Z,11.32
2023-01-18T04:07:43.355Z,11.80
2023-01-18T04:10:12.368Z,10.43
2023-01-18T04:12:40.427Z,12.50
2023-01-18T04:15:09.388Z,13.95
2023-01-18T04:17:37.552Z,13.68
2023-01-18T04:20:08.392Z,11.10
2023-01-18T04:22:36.418Z,13.95
2023-01-18T04:25:04.678Z,12.65
2023-01-18T04:27:32.682Z,10.57
2023-01-18T04:30:00.708Z,11.88
2023-01-18T04:32:29.515Z,13.00
2023-01-18T04:34:57.496Z,13.88
2023-01-18T04:37:30.384Z,15.45
2023-01-18T04:39:58.693Z,15.82
2023-01-18T04:42:26.876Z,13.93
2023-01-18T04:44:54.922Z,16.80
2023-01-18T04:47:23.078Z,15.70
2023-01-18T04:49:51.102Z,17.60
2023-01-18T04:52:19.385Z,16.55
2023-01-18T04:54:48.831Z,16.25
2023-01-18T04:57:17.011Z,17.10
2023-01-18T04:59:46.708Z,14.85
2023-01-18T05:02:15.834Z,12.80
2023-01-18T05:04:44.975Z,13.55
2023-01-18T05:07:13.215Z,20.02
2023-01-18T05:09:41.225Z,16.27
2023-01-18T05:12:10.641Z,19.70
2023-01-18T05:14:38.645Z,14.45
2023-01-18T05:17:07.353Z,16.63
2023-01-18T05:19:35.506Z,16.80
2023-01-18T05:22:03.508Z,11.55
2023-01-18T05:24:31.485Z,10.40
2023-01-18T05:26:59.697Z,9.45
2023-01-18T05:29:29.101Z,11.68
2023-01-18T05:31:57.179Z,11.70
2023-01-18T05:34:25.222Z,8.32
2023-01-18T05:36:53.231Z,7.68
2023-01-18T05:39:21.246Z,10.07
2023-01-18T05:41:49.280Z,7.80
2023-01-18T05:44:17.369Z,9.43
2023-01-18T05:46:46.779Z,8.52
2023-01-18T05:49:14.898Z,13.88
2023-01-18T05:51:42.904Z,10.10
2023-01-18T05:54:11.921Z,10.48
2023-01-18T05:56:40.034Z,9.63
2023-01-18T05:59:08.021Z,11.50
2023-01-18T06:01:36.187Z,22.33
2023-01-18T06:04:05.759Z,27.80
2023-01-18T06:09:03.361Z,21.55
2023-01-18T06:11:31.355Z,22.50
2023-01-18T06:13:59.391Z,11.98
2023-01-18T06:16:27.668Z,12.07
2023-01-18T06:18:55.883Z,14.05
2023-01-18T06:21:25.285Z,11.77
2023-01-18T06:23:53.294Z,10.68
2023-01-18T06:26:21.323Z,10.98
2023-01-18T06:28:49.350Z,10.73
2023-01-18T06:31:17.480Z,11.73
2023-01-18T06:33:45.864Z,15.82
2023-01-18T06:36:13.851Z,14.07
2023-01-18T06:38:43.287Z,14.27
2023-01-18T06:41:11.342Z,16.70
2023-01-18T06:43:39.734Z,16.08
2023-01-18T06:46:09.615Z,15.27
2023-01-18T06:48:38.547Z,17.00
2023-01-18T06:51:06.869Z,12.80
2023-01-18T06:53:37.584Z,19.85
2023-01-18T06:56:10.265Z,21.85
2023-01-18T06:58:38.675Z,66.93
2023-01-18T07:01:07.701Z,45.17
2023-01-18T07:03:35.926Z,30.50
2023-01-18T07:06:05.816Z,27.42
2023-01-18T07:08:34.259Z,30.60
2023-01-18T07:11:07.878Z,28.67
2023-01-18T07:13:39.838Z,23.75
2023-01-18T07:16:09.514Z,26.88
2023-01-18T07:18:37.563Z,26.15
2023-01-18T07:21:08.049Z,20.40
2023-01-18T07:23:37.554Z,22.02
2023-01-18T07:28:36.369Z,19.08
2023-01-18T07:31:06.164Z,23.33
2023-01-18T07:33:34.238Z,17.27
2023-01-18T07:36:02.235Z,20.80
2023-01-18T07:38:30.959Z,20.27
2023-01-18T07:41:02.055Z,21.05
2023-01-18T07:43:32.493Z,19.30
2023-01-18T07:46:01.019Z,21.38
2023-01-18T07:48:29.799Z,14.05
2023-01-18T07:50:59.722Z,19.58
2023-01-18T07:53:29.154Z,19.48
2023-01-18T07:56:00.696Z,23.33
2023-01-18T07:58:29.348Z,21.67
2023-01-18T08:01:04.248Z,22.60
2023-01-18T08:03:32.256Z,20.45
2023-01-18T08:06:00.703Z,22.55
2023-01-18T08:08:29.812Z,20.20
2023-01-18T08:10:58.782Z,21.77
2023-01-18T08:13:27.404Z,21.48
2023-01-18T08:15:55.857Z,21.37
2023-01-18T08:18:25.265Z,25.23
2023-01-18T08:20:55.151Z,20.20
2023-01-18T08:23:23.405Z,22.10
2023-01-18T08:25:51.487Z,22.52
2023-01-18T08:28:19.658Z,25.15
2023-01-18T08:30:49.384Z,20.92
2023-01-18T08:33:17.619Z,20.98
2023-01-18T08:35:48.423Z,18.92
2023-01-18T08:38:17.812Z,20.02
2023-01-18T08:40:45.808Z,19.30
2023-01-18T08:43:13.832Z,18.33
2023-01-18T08:45:41.845Z,21.40
2023-01-18T08:48:12.370Z,21.42
2023-01-18T08:50:40.344Z,17.40
2023-01-18T08:53:09.804Z,16.63
2023-01-18T08:55:38.265Z,23.67
2023-01-18T08:58:06.402Z,19.55
2023-01-18T09:00:34.488Z,17.92
2023-01-18T09:03:03.352Z,23.20
2023-01-18T09:05:31.629Z,26.98
2023-01-18T09:07:59.597Z,26.23
2023-01-18T09:10:29.006Z,19.58
2023-01-18T09:12:57.577Z,13.98
2023-01-18T09:15:26.956Z,12.50
2023-01-18T09:17:54.964Z,13.32
2023-01-18T09:20:23.018Z,14.77
2023-01-18T09:22:51.027Z,18.00
2023-01-18T09:25:20.657Z,14.65
2023-01-18T09:30:18.207Z,14.93
2023-01-18T09:32:46.402Z,18.92
2023-01-18T09:35:18.031Z,15.50
2023-01-18T09:37:46.272Z,15.02
2023-01-18T09:40:17.879Z,17.63
2023-01-18T09:42:46.775Z,13.60
2023-01-18T09:45:27.029Z,10.02
2023-01-18T09:48:01.446Z,11.70
2023-01-18T09:50:30.127Z,10.07
2023-01-18T09:53:07.740Z,10.93
2023-01-18T09:55:48.299Z,12.45
2023-01-18T09:58:37.275Z,14.68
2023-01-18T10:01:13.045Z,8.75
2023-01-18T10:03:50.324Z,10.70
2023-01-18T10:06:25.028Z,10.55
2023-01-18T10:08:58.077Z,11.75
2023-01-18T10:11:36.547Z,10.25
2023-01-18T10:14:09.160Z,18.88
2023-01-18T10:16:38.903Z,15.82
2023-01-18T10:19:23.101Z,13.45
2023-01-18T10:21:56.223Z,11.45
2023-01-18T10:24:32.451Z,20.67
2023-01-18T10:27:10.925Z,12.45
2023-01-18T10:29:54.129Z,10.57
2023-01-18T10:32:27.458Z,10.18
2023-01-18T10:34:55.961Z,9.02
2023-01-18T10:37:33.388Z,8.38
2023-01-18T10:40:03.161Z,8.70
2023-01-18T10:42:39.635Z,6.15
2023-01-18T10:45:20.036Z,4.82
2023-01-18T10:47:49.631Z,4.88
2023-01-18T10:52:46.664Z,7.05
2023-01-18T10:55:17.617Z,7.25
2023-01-18T10:57:48.611Z,33.10
2023-01-18T11:00:22.945Z,4.93
2023-01-18T11:02:54.395Z,14.95
2023-01-18T11:05:29.083Z,6.55
2023-01-18T11:08:15.098Z,7.28
2023-01-18T11:10:44.515Z,6.63
2023-01-18T11:13:27.363Z,19.15
2023-01-18T11:16:07.527Z,9.77
2023-01-18T11:18:36.956Z,5.72
2023-01-18T11:21:11.095Z,4.78
2023-01-18T11:23:41.050Z,30.67
2023-01-18T11:26:15.903Z,11.88
2023-01-18T11:28:49.529Z,7.05
2023-01-18T11:31:22.263Z,5.05
2023-01-18T11:33:54.760Z,7.85
2023-01-18T11:36:35.241Z,5.32
2023-01-18T11:39:19.126Z,7.18
2023-01-18T11:41:48.718Z,13.05
2023-01-18T11:46:50.915Z,7.22
2023-01-18T11:49:46.567Z,12.05
2023-01-18T11:52:22.091Z,10.93
2023-01-18T11:54:56.219Z,4.68
2023-01-18T11:57:24.347Z,4.00
2023-01-18T11:59:52.381Z,7.75
2023-01-18T12:02:45.402Z,4.95
2023-01-18T12:05:29.465Z,6.50
2023-01-18T12:08:18.053Z,10.60
2023-01-18T12:10:55.063Z,13.57
2023-01-18T12:13:36.356Z,5.45
2023-01-18T12:16:20.286Z,4.63
2023-01-18T12:19:20.386Z,8.80
2023-01-18T12:22:04.814Z,11.40
2023-01-18T12:24:49.320Z,13.15
2023-01-18T12:27:26.420Z,4.45
2023-01-18T12:30:19.605Z,19.02
2023-01-18T12:33:04.683Z,6.97
2023-01-18T12:35:47.352Z,4.00
2023-01-18T12:38:23.052Z,5.68
2023-01-18T12:41:18.564Z,5.40
2023-01-18T12:43:59.439Z,3.33
2023-01-18T12:46:30.442Z,5.82
2023-01-18T12:49:03.785Z,3.80
2023-01-18T12:51:36.605Z,4.35
2023-01-18T12:54:14.269Z,2.15
2023-01-18T12:56:46.090Z,3.97
2023-01-18T12:59:20.155Z,3.10
2023-01-18T13:01:52.731Z,3.42
2023-01-18T13:04:24.448Z,2.13
2023-01-18T13:06:55.922Z,3.95
2023-01-18T13:09:33.196Z,2.40
2023-01-18T13:12:02.293Z,2.05
2023-01-18T13:14:38.037Z,2.38
2023-01-18T13:17:12.574Z,3.42
2023-01-18T13:19:44.079Z,2.15
2023-01-18T13:22:23.117Z,5.88
2023-01-18T13:25:17.905Z,3.90
2023-01-18T13:27:59.101Z,3.30
2023-01-18T13:30:27.997Z,2.95
2023-01-18T13:32:56.221Z,3.20
2023-01-18T13:35:32.751Z,5.97
2023-01-18T13:38:02.725Z,3.42
2023-01-18T13:40:38.598Z,3.05
2023-01-18T13:43:27.170Z,3.83
2023-01-18T13:46:04.389Z,4.80
2023-01-18T13:48:46.767Z,6.50
2023-01-18T13:51:54.023Z,3.05
2023-01-18T13:55:02.350Z,3.22
2023-01-18T13:57:33.642Z,4.82
2023-01-18T14:00:02.416Z,5.72
2023-01-18T14:02:35.761Z,4.82
2023-01-18T14:05:08.351Z,6.28
2023-01-18T14:07:43.841Z,4.47
2023-01-18T14:10:26.214Z,7.40
2023-01-18T14:12:57.559Z,3.53
2023-01-18T14:15:37.957Z,6.22
2023-01-18T14:18:15.159Z,5.90
2023-01-18T14:21:09.331Z,4.68
2023-01-18T14:23:56.540Z,4.57
2023-01-18T14:26:29.672Z,6.25
2023-01-18T14:29:01.941Z,6.15
2023-01-18T14:31:34.050Z,3.90
2023-01-18T14:34:25.662Z,5.47
2023-01-18T14:36:53.745Z,2.85
2023-01-18T14:39:22.678Z,2.65
2023-01-18T14:41:55.139Z,6.18
2023-01-18T14:44:27.927Z,3.80
2023-01-18T14:46:58.481Z,3.80
2023-01-18T14:49:29.781Z,3.78
2023-01-18T14:51:59.756Z,4.35
2023-01-18T14:54:27.995Z,4.85
2023-01-18T14:57:02.423Z,2.90
2023-01-18T14:59:35.897Z,3.00
2023-01-18T15:02:14.862Z,7.65
2023-01-18T15:04:45.543Z,6.75
2023-01-18T15:07:19.075Z,10.13
2023-01-18T15:09:48.040Z,19.65
2023-01-18T15:12:20.537Z,12.77
2023-01-18T15:14:51.503Z,10.07
2023-01-18T15:17:23.346Z,19.25
2023-01-18T15:19:54.344Z,36.70
2023-01-18T15:22:29.314Z,45.85
2023-01-18T15:24:59.772Z,8.82
2023-01-18T15:27:30.456Z,12.15
2023-01-18T15:30:02.067Z,10.45
2023-01-18T15:32:32.648Z,5.88
2023-01-18T15:35:02.359Z,6.00
2023-01-18T15:37:33.133Z,3.95
2023-01-18T15:40:02.443Z,2.50
2023-01-18T15:42:33.594Z,3.05
2023-01-18T15:45:03.120Z,2.78
2023-01-18T15:47:37.676Z,2.58
2023-01-18T15:50:16.638Z,6.07
2023-01-18T15:52:47.597Z,4.82
2023-01-18T15:55:24.045Z,6.25
2023-01-18T15:57:58.543Z,7.15
2023-01-18T16:00:31.849Z,5.53
2023-01-18T16:02:59.947Z,5.00
2023-01-18T16:05:28.142Z,3.22
2023-01-18T16:08:18.376Z,5.18
2023-01-18T16:10:52.262Z,5.18
2023-01-18T16:13:34.771Z,3.75
2023-01-18T16:16:14.093Z,3.78
2023-01-18T16:23:45.685Z,5.63
2023-01-18T16:26:15.689Z,5.50
2023-01-18T16:28:43.759Z,6.72
2023-01-18T16:31:13.365Z,8.77
2023-01-18T16:36:18.851Z,13.18
2023-01-18T16:38:47.276Z,7.50
2023-01-18T16:41:16.915Z,8.48
2023-01-18T16:43:45.080Z,8.68
2023-01-18T16:46:14.613Z,12.35
2023-01-18T16:51:18.536Z,24.52
2023-01-18T16:53:48.189Z,20.20
2023-01-18T16:58:44.646Z,21.75
2023-01-18T17:01:16.038Z,23.35
2023-01-18T17:03:44.876Z,16.63
2023-01-18T17:06:17.664Z,26.88
2023-01-18T17:08:46.444Z,9.40
2023-01-18T17:11:14.988Z,8.80
2023-01-18T17:13:44.778Z,7.10
2023-01-18T17:16:17.821Z,16.20
2023-01-18T17:18:47.981Z,10.68
2023-01-18T17:21:16.229Z,10.45
2023-01-18T17:23:44.979Z,15.70
2023-01-18T17:26:15.738Z,18.05
2023-01-18T17:28:43.964Z,22.60
2023-01-18T17:31:11.955Z,18.23
2023-01-18T17:33:42.980Z,15.02
2023-01-18T17:36:11.167Z,15.98
2023-01-18T17:38:39.181Z,20.05
2023-01-18T17:41:11.346Z,13.82
2023-01-18T17:43:41.435Z,18.10
2023-01-18T17:46:10.395Z,15.45
2023-01-18T17:48:39.371Z,20.20
2023-01-18T17:51:09.357Z,25.60
2023-01-18T17:53:37.831Z,45.92
2023-01-18T17:56:08.549Z,33.87
2023-01-18T17:58:36.693Z,48.05
2023-01-18T18:01:10.315Z,48.55
2023-01-18T18:03:38.686Z,38.28
2023-01-18T18:06:09.256Z,36.10
2023-01-18T18:08:39.414Z,35.40
2023-01-18T18:11:08.812Z,26.83
2023-01-18T18:13:37.289Z,22.95
2023-01-18T18:16:06.665Z,22.95
2023-01-18T18:18:35.736Z,19.88
2023-01-18T18:21:06.244Z,18.23
2023-01-18T18:23:36.653Z,19.08
2023-01-18T18:26:05.499Z,19.05
2023-01-18T18:28:34.008Z,13.07
2023-01-18T18:31:02.192Z,13.53
2023-01-18T18:33:30.718Z,20.52
2023-01-18T18:35:59.034Z,31.08
2023-01-18T18:38:27.654Z,22.33
2023-01-18T18:41:04.221Z,20.70
2023-01-18T18:43:32.492Z,36.92
2023-01-18T18:46:00.506Z,45.38
2023-01-18T18:48:28.579Z,43.70
2023-01-18T18:50:56.637Z,38.00
2023-01-18T18:53:36.997Z,27.88
2023-01-18T18:56:09.562Z,24.63
2023-01-18T18:58:38.285Z,52.28
2023-01-18T19:01:07.289Z,42.53
2023-01-18T19:03:36.012Z,52.13
2023-01-18T19:06:04.017Z,35.63
2023-01-18T19:08:32.069Z,36.00
2023-01-18T19:11:00.129Z,23.65
2023-01-18T19:13:29.623Z,17.35
2023-01-18T19:15:57.801Z,16.65
2023-01-18T19:18:25.901Z,12.13
2023-01-18T19:20:53.954Z,8.63
2023-01-18T19:23:21.950Z,10.73
2023-01-18T19:25:50.049Z,9.38
2023-01-18T19:28:18.544Z,8.50
2023-01-18T19:30:47.936Z,6.82
2023-01-18T19:33:16.556Z,11.52
2023-01-18T19:35:47.283Z,13.90
2023-01-18T19:38:16.959Z,13.60
2023-01-18T19:40:45.001Z,12.48
2023-01-18T19:43:13.067Z,12.30
2023-01-18T19:45:41.117Z,11.82
2023-01-18T19:48:10.511Z,13.88
2023-01-18T19:50:38.529Z,11.65
2023-01-18T19:53:06.595Z,9.35
2023-01-18T19:55:36.353Z,7.68
2023-01-18T19:58:04.430Z,8.77
2023-01-18T20:00:32.519Z,9.15
2023-01-18T20:03:00.946Z,9.30
2023-01-18T20:05:30.552Z,8.50
2023-01-18T20:07:58.531Z,13.00
2023-01-18T20:10:26.516Z,12.35
2023-01-18T20:12:54.559Z,12.30
2023-01-18T20:15:23.093Z,9.18
2023-01-18T20:17:51.217Z,7.37
2023-01-18T20:20:31.371Z,9.23
2023-01-18T20:23:04.296Z,6.50
2023-01-18T20:25:33.245Z,7.22
2023-01-18T20:28:01.349Z,5.95
2023-01-18T20:30:29.416Z,9.15
2023-01-18T20:32:58.107Z,8.88
2023-01-18T20:35:27.450Z,6.38
2023-01-18T20:37:55.559Z,7.32
2023-01-18T20:40:24.942Z,7.63
2023-01-18T20:42:53.144Z,7.40
2023-01-18T20:45:21.156Z,10.05
2023-01-18T20:47:49.263Z,7.38
2023-01-18T20:50:17.890Z,6.20
2023-01-18T20:52:46.425Z,9.23
2023-01-18T20:55:14.809Z,7.67
2023-01-18T20:57:44.300Z,8.57
2023-01-18T21:00:13.792Z,8.90
2023-01-18T21:05:10.493Z,6.65
2023-01-18T21:07:40.738Z,7.53
2023-01-18T21:10:10.877Z,7.03
2023-01-18T21:12:38.912Z,8.63
2023-01-18T21:15:09.882Z,6.03
2023-01-18T21:17:37.942Z,6.75
2023-01-18T21:20:06.765Z,6.75
2023-01-18T21:22:34.758Z,4.47
2023-01-18T21:25:02.791Z,7.53
2023-01-18T21:27:33.145Z,6.85
2023-01-18T21:30:01.214Z,7.22
2023-01-18T21:32:30.598Z,6.05
2023-01-18T21:34:58.597Z,7.47
2023-01-18T21:37:27.747Z,9.55
2023-01-18T21:39:58.218Z,7.45
2023-01-18T21:42:43.873Z,7.38
2023-01-18T21:45:30.408Z,8.38
2023-01-18T21:48:01.039Z,7.90
2023-01-18T21:50:46.546Z,8.68
2023-01-18T21:53:33.153Z,8.50
2023-01-18T21:56:01.304Z,7.00
2023-01-18T21:58:46.701Z,8.07
2023-01-18T22:01:17.768Z,8.52
2023-01-18T22:04:04.904Z,7.93
2023-01-18T22:06:32.978Z,7.00
2023-01-18T22:09:01.153Z,9.68
2023-01-18T22:11:29.174Z,10.32
2023-01-18T22:13:57.279Z,8.35
2023-01-18T22:16:30.255Z,7.50
2023-01-18T22:19:01.211Z,10.40
2023-01-18T22:21:30.013Z,8.80
2023-01-18T22:23:58.052Z,8.82
2023-01-18T22:26:28.197Z,11.02
2023-01-18T22:28:56.293Z,9.60
2023-01-18T22:31:24.704Z,8.68
2023-01-18T22:33:53.068Z,8.88
2023-01-18T22:36:22.485Z,10.68
2023-01-18T22:38:50.475Z,8.90
2023-01-18T22:41:20.211Z,9.13
2023-01-18T22:43:48.320Z,8.18
2023-01-18T22:46:18.830Z,9.18
2023-01-18T22:48:47.847Z,9.32
2023-01-18T22:51:17.893Z,9.20
2023-01-18T22:53:47.908Z,10.80
2023-01-18T22:56:18.979Z,9.82
2023-01-18T22:58:47.222Z,9.45
2023-01-18T23:01:18.085Z,10.02
2023-01-18T23:03:46.367Z,7.80
2023-01-18T23:06:14.898Z,8.55
2023-01-18T23:08:46.011Z,9.80
2023-01-18T23:11:17.415Z,8.30
2023-01-18T23:14:09.075Z,9.18
2023-01-18T23:16:55.644Z,11.75
2023-01-18T23:19:25.034Z,8.63
2023-01-18T23:21:54.406Z,9.23
2023-01-18T23:26:52.289Z,11.52
2023-01-18T23:29:21.216Z,12.57
2023-01-18T23:31:49.271Z,10.32
2023-01-18T23:34:17.485Z,11.93
2023-01-18T23:36:45.527Z,10.95
2023-01-18T23:39:31.050Z,10.75
2023-01-18T23:42:17.846Z,9.25
2023-01-18T23:45:03.478Z,13.32
2023-01-18T23:47:49.037Z,15.02
2023-01-18T23:50:34.929Z,25.33
2023-01-18T23:53:21.114Z,13.50
2023-01-18T23:55:52.381Z,9.18
2023-01-18T23:58:21.758Z,10.07
